Time;durP1;ratioP1;P1;durP2;ratioP2;P2;SDS_P1;SDS_P2;PMS_P1;PMS_P2;Temp;Humidity;BMP_temperature;BMP_pressure;BME280_temperature;BME280_humidity;BME280_pressure;Samples;Min_cycle;Max_cycle;Signal;HPM_P1;HPM_P2
2023/04/11 00:01:58;;;;;;;39.95;22.22;;;;;;;10.68;100.00;100755.37;4851950;58;1145336;-75
2023/04/11 00:07:06;;;;;;;39.30;21.03;;;;;;;10.62;100.00;100746.56;4833383;58;1145297;-75
2023/04/11 00:12:12;;;;;;;33.10;19.80;;;;;;;10.54;100.00;100739.69;4829173;58;1145335;-77
2023/04/11 00:17:17;;;;;;;26.80;17.20;;;;;;;10.49;100.00;100733.41;4793597;58;1145389;-76
2023/04/11 00:22:23;;;;;;;31.73;18.57;;;;;;;10.52;100.00;100721.77;4994301;57;1239566;-75
2023/04/11 00:27:29;;;;;;;31.30;20.47;;;;;;;10.54;100.00;100714.56;4983023;57;1182863;-75
2023/04/11 00:32:35;;;;;;;35.23;20.10;;;;;;;10.47;100.00;100715.48;4978061;57;1145260;-75
2023/04/11 00:37:43;;;;;;;31.63;20.13;;;;;;;10.33;100.00;100713.49;4983626;57;1145313;-75
2023/04/11 00:42:49;;;;;;;33.47;19.93;;;;;;;10.25;100.00;100706.58;4916064;57;1145159;-75
2023/04/11 00:47:55;;;;;;;36.00;20.73;;;;;;;10.13;100.00;100705.17;5003887;57;1145160;-76
2023/04/11 00:53:01;;;;;;;40.23;21.73;;;;;;;10.02;100.00;100698.99;5042654;57;1145139;-75
2023/04/11 00:58:08;;;;;;;31.07;19.63;;;;;;;9.90;100.00;100696.77;5023150;57;1145121;-77
2023/04/11 01:03:13;;;;;;;35.63;21.13;;;;;;;9.88;100.00;100693.38;5023211;56;1143116;-75
2023/04/11 01:08:21;;;;;;;33.03;20.53;;;;;;;9.94;100.00;100685.47;5042906;57;1143153;-75
2023/04/11 01:13:28;;;;;;;41.13;20.90;;;;;;;9.87;100.00;100674.05;4977540;57;1143228;-75
2023/04/11 01:18:34;;;;;;;43.53;23.03;;;;;;;9.75;100.00;100661.73;4959419;57;1143281;-75
2023/04/11 01:23:40;;;;;;;39.70;22.77;;;;;;;9.58;100.00;100654.64;5036822;57;1143148;-75
2023/04/11 01:28:47;;;;;;;37.55;20.85;;;;;;;9.47;100.00;100650.13;5019892;57;1143103;-75
2023/04/11 01:33:53;;;;;;;48.10;23.52;;;;;;;9.45;100.00;100634.40;4936390;57;1143688;-74
2023/04/11 01:38:59;;;;;;;39.48;21.40;;;;;;;9.44;100.00;100619.52;4984330;57;1143130;-76
2023/04/11 01:44:05;;;;;;;40.03;23.10;;;;;;;9.38;100.00;100612.02;5003330;57;1143116;-76
2023/04/11 01:49:14;;;;;;;41.93;23.23;;;;;;;9.42;100.00;100601.61;4977260;57;1143024;-74
2023/04/11 01:54:19;;;;;;;44.10;25.03;;;;;;;9.45;100.00;100601.40;5015707;57;1143256;-76
2023/04/11 01:59:25;;;;;;;40.33;23.93;;;;;;;9.47;100.00;100595.50;4983929;56;1143141;-76
2023/04/11 02:04:31;;;;;;;45.10;25.77;;;;;;;9.35;100.00;100583.19;4959146;57;1143058;-74
2023/04/11 02:09:37;;;;;;;40.73;23.93;;;;;;;9.35;100.00;100583.19;4999045;57;1143207;-76
2023/04/11 02:14:45;;;;;;;39.67;24.30;;;;;;;9.26;100.00;100574.62;4975918;56;1143212;-76
2023/04/11 02:19:51;;;;;;;36.80;24.17;;;;;;;9.23;100.00;100570.88;5002788;56;1143280;-76
2023/04/11 02:24:57;;;;;;;42.25;25.97;;;;;;;9.25;100.00;100567.66;5006751;56;1143028;-76
2023/04/11 02:30:06;;;;;;;40.03;25.23;;;;;;;9.34;100.00;100565.66;4977215;56;1142952;-76
2023/04/11 02:35:11;;;;;;;52.17;28.63;;;;;;;9.42;100.00;100554.09;4980164;57;1143042;-76
2023/04/11 02:40:18;;;;;;;65.43;32.97;;;;;;;9.46;100.00;100552.09;4959172;58;1143067;-76
2023/04/11 02:45:24;;;;;;;47.43;26.90;;;;;;;9.48;100.00;100550.15;4976457;57;1143220;-75
2023/04/11 02:50:30;;;;;;;48.77;28.20;;;;;;;9.41;100.00;100541.84;5004412;57;1143069;-75
2023/04/11 02:55:36;;;;;;;58.53;30.27;;;;;;;9.27;100.00;100527.48;5002741;57;1143015;-76
2023/04/11 03:00:42;;;;;;;66.37;31.43;;;;;;;9.18;100.00;100526.33;4983182;57;1143034;-75
2023/04/11 03:05:48;;;;;;;57.67;29.35;;;;;;;9.12;100.00;100512.75;4986744;57;1147031;-76
2023/04/11 03:10:55;;;;;;;50.00;29.00;;;;;;;9.08;100.00;100507.33;4992213;57;1143118;-75
2023/04/11 03:16:02;;;;;;;47.33;29.05;;;;;;;9.01;100.00;100496.86;4947866;58;1143002;-75
2023/04/11 03:21:10;;;;;;;50.87;31.27;;;;;;;8.89;100.00;100480.56;4932594;57;1143158;-76
2023/04/11 03:26:17;;;;;;;50.90;32.03;;;;;;;8.82;100.00;100476.22;4932421;57;1143102;-75
2023/04/11 03:31:23;;;;;;;51.40;32.03;;;;;;;8.78;100.00;100463.72;4951811;57;1143116;-75
2023/04/11 03:36:31;;;;;;;51.05;29.80;;;;;;;8.83;100.00;100452.01;4932997;57;1142964;-76
2023/04/11 03:41:38;;;;;;;47.17;29.03;;;;;;;8.86;100.00;100436.78;4928140;57;1143161;-76
2023/04/11 03:46:45;;;;;;;47.33;28.77;;;;;;;8.89;100.00;100427.34;4937001;57;1143264;-76
2023/04/11 03:51:51;;;;;;;50.57;29.97;;;;;;;8.89;100.00;100427.34;4956245;57;1143089;-74
2023/04/11 03:56:57;;;;;;;51.13;30.40;;;;;;;8.93;100.00;100414.78;4942820;56;1143070;-74
2023/04/11 04:02:03;;;;;;;50.53;29.57;;;;;;;8.97;100.00;100406.55;4942402;57;1143188;-74
2023/04/11 04:07:09;;;;;;;56.03;31.13;;;;;;;9.02;100.00;100410.98;4961721;58;1143024;-74
2023/04/11 04:12:20;;;;;;;49.03;30.23;;;;;;;9.00;100.00;100393.61;4942410;57;1143025;-75
2023/04/11 04:17:39;;;;;;;48.00;28.63;;;;;;;8.92;100.00;100395.95;4948663;57;1143127;-75
2023/04/11 04:22:46;;;;;;;45.03;27.33;;;;;;;8.88;100.00;100390.05;4943861;57;1143361;-76
2023/04/11 04:27:56;;;;;;;51.40;30.57;;;;;;;8.84;100.00;100387.77;4935172;58;1143225;-77
2023/04/11 04:33:01;;;;;;;50.48;32.10;;;;;;;8.78;100.00;100378.49;4928080;58;1143313;-77
2023/04/11 04:38:08;;;;;;;60.30;32.63;;;;;;;8.68;100.00;100367.78;4960242;57;1143123;-76
2023/04/11 04:43:25;;;;;;;48.10;29.73;;;;;;;8.66;100.00;100364.41;4964519;57;1143127;-77
2023/04/11 04:48:36;;;;;;;64.17;45.23;;;;;;;8.72;100.00;100365.27;4977856;56;1143037;-77
2023/04/11 04:53:41;;;;;;;53.33;34.03;;;;;;;8.75;100.00;100361.57;5022954;56;1143127;-74
2023/04/11 04:58:48;;;;;;;49.97;29.70;;;;;;;8.71;100.00;100355.67;4974811;57;1143110;-75
2023/04/11 05:03:58;;;;;;;49.38;28.50;;;;;;;8.72;100.00;100336.73;4991119;57;1151908;-75
2023/04/11 05:09:05;;;;;;;49.85;30.48;;;;;;;8.72;100.00;100335.42;4983096;57;1143057;-75
2023/04/11 05:14:12;;;;;;;50.40;32.97;;;;;;;8.69;100.00;100335.19;4988122;57;1143214;-74
2023/04/11 05:19:18;;;;;;;54.73;33.83;;;;;;;8.64;100.00;100330.72;5043088;57;1142961;-76
2023/04/11 05:24:25;;;;;;;55.67;30.47;;;;;;;8.56;100.00;100322.98;4994161;57;1143112;-75
2023/04/11 05:29:31;;;;;;;47.53;29.93;;;;;;;8.52;100.00;100302.63;4941987;56;1143021;-76
2023/04/11 05:34:51;;;;;;;60.47;37.90;;;;;;;8.55;100.00;100296.29;4961708;56;1143209;-75
2023/04/11 05:39:58;;;;;;;60.57;36.43;;;;;;;8.60;100.00;100292.82;4942095;57;1143170;-76
2023/04/11 05:45:05;;;;;;;54.30;35.73;;;;;;;8.58;100.00;100290.29;4941542;57;1143008;-75
2023/04/11 05:50:11;;;;;;;55.33;33.73;;;;;;;8.62;100.00;100273.30;4964639;57;1142994;-76
2023/04/11 05:55:17;;;;;;;58.83;34.03;;;;;;;8.66;100.00;100262.06;4982709;57;1143093;-75
2023/04/11 06:00:24;;;;;;;54.83;34.67;;;;;;;8.76;100.00;100259.10;5009765;57;1142996;-76
2023/04/11 06:05:30;;;;;;;59.03;35.30;;;;;;;8.85;100.00;100250.53;4995202;57;1143156;-76
2023/04/11 06:10:36;;;;;;;63.30;38.57;;;;;;;8.90;100.00;100231.70;4974977;57;1143000;-75
2023/04/11 06:15:42;;;;;;;55.60;37.70;;;;;;;8.97;100.00;100235.09;4970928;57;1143044;-77
2023/04/11 06:20:48;;;;;;;56.53;33.27;;;;;;;9.04;100.00;100231.02;4978560;57;1143179;-76
2023/04/11 06:25:53;;;;;;;50.87;31.83;;;;;;;9.12;100.00;100227.34;4997111;57;1143020;-75
2023/04/11 06:30:59;;;;;;;51.53;31.27;;;;;;;9.25;100.00;100231.19;5033390;57;1142957;-76
2023/04/11 06:36:05;;;;;;;49.65;30.17;;;;;;;9.38;100.00;100225.33;5057102;57;1142985;-76
2023/04/11 06:41:11;;;;;;;54.93;33.07;;;;;;;9.52;100.00;100226.41;5076935;57;1143174;-77
2023/04/11 06:46:16;;;;;;;61.60;35.33;;;;;;;9.62;100.00;100220.44;5006918;57;1143046;-76
2023/04/11 06:51:22;;;;;;;52.33;31.13;;;;;;;9.67;100.00;100216.94;4974409;58;1143157;-75
2023/04/11 06:56:27;;;;;;;53.60;32.40;;;;;;;9.74;100.00;100213.70;5026724;57;1142993;-76
2023/04/11 07:01:39;;;;;;;42.67;25.47;;;;;;;9.83;100.00;100206.36;4962933;58;1143066;-74
2023/04/11 07:06:40;;;;;;;45.83;28.50;;;;;;;9.92;100.00;100196.88;4957010;57;1143099;-74
2023/04/11 07:11:46;;;;;;;48.70;28.57;;;;;;;9.98;100.00;100192.41;4942737;57;1143226;-73
2023/04/11 07:16:52;;;;;;;33.75;20.75;;;;;;;10.03;100.00;100199.50;4945545;58;1143083;-73
2023/04/11 07:21:59;;;;;;;40.55;23.52;;;;;;;10.11;100.00;100181.20;4916016;58;1145344;-73
2023/04/11 07:27:05;;;;;;;44.67;25.53;;;;;;;10.21;100.00;100188.80;4927019;58;1145212;-74
2023/04/11 07:32:11;;;;;;;43.07;27.57;;;;;;;10.29;100.00;100174.94;4947381;58;1145206;-74
2023/04/11 07:37:16;;;;;;;44.23;25.90;;;;;;;10.35;100.00;100169.16;4927781;58;1145276;-74
2023/04/11 07:42:22;;;;;;;46.63;25.97;;;;;;;10.42;100.00;100165.03;4926910;58;1145231;-76
2023/04/11 07:47:28;;;;;;;45.13;27.57;;;;;;;10.54;100.00;100161.88;4990806;56;1145297;-75
2023/04/11 07:52:34;;;;;;;47.07;25.93;;;;;;;10.60;100.00;100142.84;4980807;57;1145330;-76
2023/04/11 07:57:40;;;;;;;42.27;24.37;;;;;;;10.69;100.00;100142.57;5016331;57;1145159;-75
2023/04/11 08:02:45;;;;;;;42.80;26.40;;;;;;;10.74;100.00;100133.75;4965382;57;1145253;-74
2023/04/11 08:07:51;;;;;;;44.98;29.25;;;;;;;10.84;100.00;100130.22;4982185;57;1145155;-75
2023/04/11 08:12:58;;;;;;;45.47;25.67;;;;;;;11.01;100.00;100105.42;4955940;57;1145063;-74
2023/04/11 08:18:16;;;;;;;59.87;31.33;;;;;;;11.01;100.00;100105.42;4948954;58;1145195;-76
2023/04/11 08:23:29;;;;;;;35.03;22.63;;;;;;;11.17;100.00;100103.12;4982249;57;1145124;-75
2023/04/11 08:28:49;;;;;;;43.75;25.57;;;;;;;11.31;100.00;100104.09;4908183;57;1145299;-76
2023/04/11 08:33:55;;;;;;;37.03;22.47;;;;;;;11.40;100.00;100098.00;4994909;56;1145322;-76
2023/04/11 08:39:01;;;;;;;51.42;28.47;;;;;;;11.48;100.00;100090.21;5009491;57;1145130;-76
2023/04/11 08:44:11;;;;;;;52.48;28.27;;;;;;;11.56;100.00;100092.20;4997208;57;1145060;-76
2023/04/11 08:49:17;;;;;;;82.17;37.50;;;;;;;11.61;100.00;100096.09;4967667;57;1145025;-77
2023/04/11 08:54:22;;;;;;;59.27;28.10;;;;;;;11.70;100.00;100087.84;4864875;58;1145196;-76
2023/04/11 08:59:28;;;;;;;54.00;26.07;;;;;;;11.85;100.00;100079.03;4982809;57;1145298;-76
2023/04/11 09:04:42;;;;;;;24.77;17.20;;;;;;;11.90;100.00;100070.19;4934879;57;1145085;-77
2023/04/11 09:09:47;;;;;;;33.83;18.17;;;;;;;11.97;100.00;100065.51;4947848;57;1145080;-76
2023/04/11 09:14:53;;;;;;;32.73;16.40;;;;;;;12.04;100.00;100060.98;5009904;57;1145253;-76
2023/04/11 09:20:05;;;;;;;36.17;17.82;;;;;;;12.13;100.00;100052.19;5009283;57;1145137;-77
2023/04/11 09:25:10;;;;;;;28.83;18.17;;;;;;;12.17;100.00;100042.98;4941109;57;1145228;-75
2023/04/11 09:30:26;;;;;;;34.50;16.97;;;;;;;12.20;100.00;100039.57;4929905;58;1144990;-77
2023/04/11 09:35:32;;;;;;;26.40;17.40;;;;;;;12.26;100.00;100038.98;4951192;57;1145093;-76
2023/04/11 09:40:43;;;;;;;28.13;17.67;;;;;;;12.30;100.00;100029.78;4950482;57;1145201;-77
2023/04/11 09:45:49;;;;;;;29.77;18.17;;;;;;;12.39;100.00;100024.58;4949762;57;1145236;-74
2023/04/11 09:50:56;;;;;;;34.26;19.38;;;;;;;12.43;100.00;100008.25;4942495;58;1150800;-77
2023/04/11 09:56:02;;;;;;;26.02;15.88;;;;;;;12.51;100.00;99994.29;4938846;58;1145383;-77
2023/04/11 10:01:09;;;;;;;27.85;17.00;;;;;;;12.58;100.00;100000.19;4935045;57;1143050;-74
2023/04/11 10:06:21;;;;;;;31.03;19.10;;;;;;;12.65;100.00;99991.17;4942025;57;1145099;-75
2023/04/11 10:11:27;;;;;;;25.93;17.10;;;;;;;12.72;100.00;99988.27;4924472;58;1143400;-77
2023/04/11 10:16:33;;;;;;;26.77;15.27;;;;;;;12.75;100.00;99985.81;5004677;57;1143209;-76
2023/04/11 10:21:41;;;;;;;25.70;15.03;;;;;;;12.81;100.00;99982.09;5033246;57;1143094;-76
2023/04/11 10:26:59;;;;;;;26.05;16.48;;;;;;;12.94;100.00;99983.92;5012949;56;1143066;-76
2023/04/11 10:32:20;;;;;;;24.50;16.65;;;;;;;13.00;100.00;99971.86;4990352;57;1143058;-75
2023/04/11 10:37:36;;;;;;;26.83;16.40;;;;;;;13.17;100.00;99967.11;4955254;57;1143047;-75
2023/04/11 10:42:47;;;;;;;28.57;17.00;;;;;;;13.28;97.34;99968.26;4944550;57;1142888;-77
2023/04/11 10:48:00;;;;;;;28.50;17.07;;;;;;;13.34;97.36;99964.15;4945211;57;1141198;-75
2023/04/11 10:53:08;;;;;;;24.47;16.00;;;;;;;13.41;99.04;99961.73;4860047;59;1141226;-77
2023/04/11 10:58:20;;;;;;;22.05;15.88;;;;;;;13.46;98.48;99957.63;5025222;57;1141068;-78
2023/04/11 11:03:32;;;;;;;31.50;18.33;;;;;;;13.58;98.18;99946.30;4838958;59;1141021;-77
2023/04/11 11:08:41;;;;;;;30.70;17.37;;;;;;;13.67;96.40;99938.73;5006663;57;1141017;-77
2023/04/11 11:13:59;;;;;;;28.43;18.17;;;;;;;13.76;96.33;99938.30;4914897;57;1140997;-76
2023/04/11 11:19:05;;;;;;;26.73;17.75;;;;;;;13.86;96.85;99933.75;4904319;57;1141027;-75
2023/04/11 11:24:10;;;;;;;27.80;17.63;;;;;;;13.86;93.96;99927.10;4904140;57;1140922;-75
2023/04/11 11:29:16;;;;;;;30.23;19.75;;;;;;;13.87;95.41;99930.10;4923710;58;1140957;-76
2023/04/11 11:34:33;;;;;;;25.63;16.60;;;;;;;13.82;95.19;99923.91;4904064;58;1141011;-76
2023/04/11 11:39:39;;;;;;;29.60;14.57;;;;;;;13.82;95.19;99919.92;4904456;57;1141011;-76
2023/04/11 11:44:45;;;;;;;31.67;17.10;;;;;;;13.72;90.62;99928.00;4947579;57;1141093;-75
2023/04/11 11:49:55;;;;;;;34.60;22.20;;;;;;;13.50;90.67;99931.59;4983987;57;1140988;-74
2023/04/11 11:55:09;;;;;;;27.50;14.98;;;;;;;13.28;90.48;99939.53;4984102;57;1140951;-74
2023/04/11 12:00:16;;;;;;;22.57;14.27;;;;;;;13.13;87.70;99939.19;4973413;57;1141340;-75
2023/04/11 12:05:31;;;;;;;24.47;14.80;;;;;;;13.09;88.30;99951.56;4981539;56;1141146;-75
2023/04/11 12:10:46;;;;;;;22.43;14.73;;;;;;;13.15;89.89;99940.36;4956713;57;1141186;-76
2023/04/11 12:15:55;;;;;;;20.90;14.43;;;;;;;12.97;92.91;99953.59;4888569;56;1140988;-74
2023/04/11 12:21:01;;;;;;;25.33;13.20;;;;;;;12.64;95.22;99952.36;4976453;56;1140835;-75
2023/04/11 12:26:07;;;;;;;28.42;14.95;;;;;;;12.33;97.04;99951.27;4947820;57;1140926;-75
2023/04/11 12:31:13;;;;;;;19.57;13.33;;;;;;;12.13;98.53;99958.08;4930116;57;1141054;-75
2023/04/11 12:36:20;;;;;;;23.93;14.83;;;;;;;11.98;99.66;99942.63;4978475;56;1141034;-74
2023/04/11 12:41:25;;;;;;;19.17;12.90;;;;;;;11.91;100.00;99938.05;4988353;57;1141138;-75
2023/04/11 12:46:32;;;;;;;18.67;13.10;;;;;;;11.74;100.00;99942.70;4955572;57;1143053;-76
2023/04/11 12:51:37;;;;;;;24.40;14.80;;;;;;;11.72;100.00;99941.52;4947077;58;1142924;-76
2023/04/11 12:56:43;;;;;;;23.97;12.40;;;;;;;11.71;100.00;99943.81;4960707;57;1143140;-77
2023/04/11 13:01:49;;;;;;;17.95;12.07;;;;;;;11.67;100.00;99943.73;4924659;57;1142992;-77
2023/04/11 13:06:59;;;;;;;19.30;12.87;;;;;;;11.59;100.00;99939.64;4964535;56;1143438;-76
2023/04/11 13:12:02;;;;;;;16.47;11.63;;;;;;;11.54;100.00;99955.94;5009457;57;1143207;-76
2023/04/11 13:17:08;;;;;;;14.50;9.30;;;;;;;11.44;100.00;99965.70;5008448;56;1143230;-78
2023/04/11 13:22:13;;;;;;;6.42;5.58;;;;;;;11.27;100.00;99971.66;4990861;57;1141166;-75
2023/04/11 13:27:20;;;;;;;8.53;5.50;;;;;;;10.68;100.00;99996.75;4961711;58;1138928;-75
2023/04/11 13:32:26;;;;;;;10.47;6.83;;;;;;;10.68;100.00;99996.75;4942211;58;1139040;-76
2023/04/11 13:37:32;;;;;;;8.40;6.60;;;;;;;10.41;100.00;99992.00;4941911;58;1140884;-74
2023/04/11 13:42:37;;;;;;;9.10;6.20;;;;;;;10.13;100.00;100004.88;4961891;58;1139280;-75
2023/04/11 13:47:43;;;;;;;7.17;5.90;;;;;;;9.88;100.00;99998.66;5015131;57;1141000;-76
2023/04/11 13:52:49;;;;;;;8.17;5.50;;;;;;;9.71;100.00;100009.77;5009215;57;1137017;-76
2023/04/11 13:57:55;;;;;;;4.55;4.10;;;;;;;9.57;100.00;99995.54;5023630;57;1138830;-77
2023/04/11 14:03:00;;;;;;;6.23;5.27;;;;;;;9.32;100.00;99997.52;4986158;57;1136891;-77
2023/04/11 14:08:06;;;;;;;7.80;5.43;;;;;;;9.22;100.00;100014.22;4942734;58;1136845;-76
2023/04/11 14:13:12;;;;;;;7.87;5.12;;;;;;;9.15;100.00;100017.36;4999589;57;1138833;-77
2023/04/11 14:18:17;;;;;;;8.33;5.23;;;;;;;9.05;100.00;100028.27;5065368;57;1138867;-75
2023/04/11 14:23:23;;;;;;;12.20;5.03;;;;;;;8.94;100.00;100027.44;5045074;57;1139058;-75
2023/04/11 14:28:29;;;;;;;8.37;4.63;;;;;;;8.86;100.00;100031.98;5044712;57;1141338;-75
2023/04/11 14:33:34;;;;;;;2.77;2.53;;;;;;;8.78;100.00;100043.14;5034908;57;1138841;-75
2023/04/11 14:38:40;;;;;;;5.07;2.90;;;;;;;8.60;100.00;100063.01;5045457;57;1138876;-75
2023/04/11 14:43:45;;;;;;;5.17;2.07;;;;;;;8.42;100.00;100059.98;4991601;57;1139071;-75
2023/04/11 14:48:51;;;;;;;3.33;1.70;;;;;;;8.36;100.00;100059.62;4863566;58;1138902;-75
2023/04/11 14:53:58;;;;;;;1.80;1.43;;;;;;;8.41;100.00;100060.93;4984908;57;1139011;-75
2023/04/11 14:59:04;;;;;;;2.37;2.00;;;;;;;8.41;100.00;100064.05;4963113;57;1138888;-75
2023/04/11 15:04:09;;;;;;;1.90;1.73;;;;;;;8.40;100.00;100061.08;4997729;57;1138908;-75
2023/04/11 15:09:18;;;;;;;6.67;3.42;;;;;;;8.43;100.00;100064.77;4958699;57;1138792;-75
2023/04/11 15:14:28;;;;;;;4.70;2.87;;;;;;;8.48;100.00;100061.80;4993855;57;1139062;-75
2023/04/11 15:19:30;;;;;;;3.72;2.52;;;;;;;8.46;100.00;100061.91;4944639;56;1138902;-75
2023/04/11 15:24:35;;;;;;;7.37;3.50;;;;;;;8.50;100.00;100054.14;4970213;57;1138946;-75
2023/04/11 15:29:41;;;;;;;6.43;3.73;;;;;;;8.50;100.00;100055.45;4931780;57;1138868;-75
2023/04/11 15:34:48;;;;;;;2.73;2.53;;;;;;;8.48;100.00;100040.71;4944521;57;1139041;-75
2023/04/11 15:39:54;;;;;;;7.47;4.40;;;;;;;8.56;100.00;100039.63;4924911;57;1138945;-75
2023/04/11 15:45:00;;;;;;;7.77;3.93;;;;;;;8.60;100.00;100047.67;4977297;56;1138896;-75
2023/04/11 15:50:06;;;;;;;5.77;2.70;;;;;;;8.59;100.00;100044.20;4953178;57;1138849;-76
2023/04/11 15:55:12;;;;;;;1.32;1.10;;;;;;;8.62;100.00;100043.13;4978097;56;1138947;-76
2023/04/11 16:00:21;;;;;;;1.87;1.30;;;;;;;8.59;100.00;100034.97;4968078;56;1138862;-76
2023/04/11 16:05:26;;;;;;;4.03;2.40;;;;;;;8.59;100.00;100034.97;4933692;57;1138949;-75
2023/04/11 16:10:32;;;;;;;2.93;2.40;;;;;;;8.65;100.00;100033.67;4958564;57;1138859;-76
2023/04/11 16:15:38;;;;;;;7.07;4.40;;;;;;;8.76;100.00;100034.98;4956489;57;1138931;-76
2023/04/11 16:20:43;;;;;;;2.23;1.80;;;;;;;8.86;100.00;100029.86;4919759;58;1138843;-76
2023/04/11 16:25:49;;;;;;;3.90;1.30;;;;;;;8.84;100.00;100035.25;4911935;58;1138763;-75
2023/04/11 16:30:54;;;;;;;19.80;11.03;;;;;;;8.79;100.00;100040.03;4922979;58;1138975;-77
2023/04/11 16:36:00;;;;;;;3.70;3.40;;;;;;;8.71;100.00;100040.61;4945790;58;1143398;-75
2023/04/11 16:41:06;;;;;;;2.30;1.90;;;;;;;8.72;100.00;100045.41;4930964;57;1138999;-76
2023/04/11 16:46:15;;;;;;;1.15;1.15;;;;;;;8.62;100.00;100043.97;4801354;59;1138973;-75
2023/04/11 16:51:21;;;;;;;1.27;1.20;;;;;;;8.57;100.00;100036.05;4757110;60;1139074;-74
2023/04/11 16:56:26;;;;;;;3.00;2.33;;;;;;;8.53;100.00;100040.73;4778955;59;1139013;-75
2023/04/11 17:01:32;;;;;;;26.73;14.87;;;;;;;8.50;100.00;100039.64;4798564;59;1138979;-76
2023/04/11 17:06:38;;;;;;;29.40;14.67;;;;;;;8.50;100.00;100039.64;4771105;59;1143005;-76
2023/04/11 17:11:43;;;;;;;14.30;7.17;;;;;;;8.51;100.00;100041.80;4689369;58;1143009;-76
2023/04/11 17:16:49;;;;;;;57.17;33.50;;;;;;;8.54;100.00;100045.05;4756146;59;1141152;-74
2023/04/11 17:21:56;;;;;;;38.53;19.00;;;;;;;8.50;100.00;100052.82;4852643;58;1143099;-75
2023/04/11 17:27:02;;;;;;;40.50;21.90;;;;;;;8.46;100.00;100052.69;4792756;60;1143303;-71
2023/04/11 17:32:07;;;;;;;27.20;15.63;;;;;;;8.47;100.00;100060.95;4850114;58;1143153;-70
2023/04/11 17:37:13;;;;;;;26.60;14.53;;;;;;;8.42;100.00;100070.52;4846709;58;1143108;-68
2023/04/11 17:42:18;;;;;;;18.87;11.10;;;;;;;8.40;100.00;100072.42;4843014;59;1143169;-71
2023/04/11 17:47:25;;;;;;;33.33;20.80;;;;;;;8.39;100.00;100069.94;4773945;58;1143253;-67
2023/04/11 17:52:31;;;;;;;46.73;19.83;;;;;;;8.40;100.00;100070.30;4795413;59;1143109;-70
2023/04/11 17:57:37;;;;;;;15.78;8.80;;;;;;;8.45;100.00;100072.92;4795385;59;1143149;-70
2023/04/11 18:02:47;;;;;;;37.83;17.97;;;;;;;8.48;100.00;100082.88;4823568;59;1140999;-70
2023/04/11 18:07:56;;;;;;;20.70;10.50;;;;;;;8.48;100.00;100088.15;4828813;59;1142924;-70
2023/04/11 18:13:01;;;;;;;20.60;12.17;;;;;;;8.46;100.00;100085.63;4838186;59;1143432;-69
2023/04/11 18:18:08;;;;;;;27.90;12.40;;;;;;;8.44;100.00;100092.80;4864585;59;1143291;-72
2023/04/11 18:23:13;;;;;;;14.50;9.55;;;;;;;8.47;100.00;100103.12;4820638;59;1142978;-70
2023/04/11 18:28:19;;;;;;;52.13;22.30;;;;;;;8.45;100.00;100097.13;4916112;57;1140917;-71
2023/04/11 18:33:25;;;;;;;68.80;26.57;;;;;;;8.45;100.00;100114.25;4907879;57;1142962;-72
2023/04/11 18:38:31;;;;;;;38.47;20.00;;;;;;;8.30;100.00;100123.27;4849822;58;1143057;-72
2023/04/11 18:43:36;;;;;;;36.33;16.37;;;;;;;8.24;100.00;100134.28;4854310;58;1143027;-71
2023/04/11 18:48:42;;;;;;;37.03;21.53;;;;;;;8.21;100.00;100131.39;4925828;57;1143002;-71
2023/04/11 18:53:48;;;;;;;38.07;16.87;;;;;;;8.19;100.00;100131.98;4910038;57;1143186;-69
2023/04/11 18:58:53;;;;;;;26.40;14.03;;;;;;;8.20;100.00;100135.45;4911656;57;1143170;-71
2023/04/11 19:03:59;;;;;;;23.20;11.67;;;;;;;8.16;100.00;100133.99;4931062;57;1143329;-69
2023/04/11 19:09:06;;;;;;;15.10;9.00;;;;;;;8.13;100.00;100137.20;4884775;57;1143104;-71
2023/04/11 19:14:11;;;;;;;10.10;6.33;;;;;;;8.03;100.00;100125.68;4915104;57;1140947;-69
2023/04/11 19:19:17;;;;;;;7.40;3.98;;;;;;;7.93;100.00;100140.95;4934730;57;1140932;-69
2023/04/11 19:24:23;;;;;;;7.20;4.53;;;;;;;7.78;100.00;100136.33;4940519;57;1138789;-71
2023/04/11 19:29:28;;;;;;;6.17;3.60;;;;;;;7.64;100.00;100145.19;4976717;57;1138929;-69
2023/04/11 19:34:34;;;;;;;7.27;4.47;;;;;;;7.60;100.00;100141.59;5004090;57;1138832;-71
2023/04/11 19:39:40;;;;;;;6.00;3.43;;;;;;;7.52;100.00;100136.01;4981773;57;1138768;-70
2023/04/11 19:44:45;;;;;;;4.63;3.57;;;;;;;7.43;100.00;100136.67;4946382;57;1138964;-71
2023/04/11 19:49:58;;;;;;;6.90;3.90;;;;;;;7.35;100.00;100137.20;4917372;57;1139053;-73
2023/04/11 19:55:03;;;;;;;5.90;4.13;;;;;;;7.32;100.00;100142.70;4933680;57;1139250;-70
2023/04/11 20:00:12;;;;;;;8.50;4.65;;;;;;;7.29;100.00;100134.55;4949996;57;1139055;-70
2023/04/11 20:05:20;;;;;;;7.17;4.42;;;;;;;7.17;100.00;100117.00;4945853;57;1139132;-69
2023/04/11 20:10:28;;;;;;;5.23;3.63;;;;;;;7.24;100.00;100139.75;4940926;56;1138880;-73
2023/04/11 20:15:34;;;;;;;4.57;3.90;;;;;;;7.21;100.00;100149.16;4963258;56;1138788;-71
2023/04/11 20:20:40;;;;;;;5.70;3.73;;;;;;;7.20;100.00;100154.05;4968851;57;1139078;-72
2023/04/11 20:25:45;;;;;;;9.53;4.10;;;;;;;7.16;100.00;100152.61;4935073;57;1138847;-72
2023/04/11 20:30:51;;;;;;;7.00;3.70;;;;;;;7.13;100.00;100151.49;4847736;58;1139017;-73
2023/04/11 20:35:57;;;;;;;4.28;2.77;;;;;;;7.09;100.00;100152.17;4906161;58;1138938;-72
2023/04/11 20:41:04;;;;;;;6.97;3.70;;;;;;;7.01;100.00;100153.19;4903288;58;1138911;-72
2023/04/11 20:46:12;;;;;;;6.93;4.47;;;;;;;6.97;100.00;100152.55;4947741;57;1138902;-68
2023/04/11 20:51:17;;;;;;;4.97;3.87;;;;;;;6.98;100.00;100160.80;4905920;57;1138954;-69
2023/04/11 20:56:22;;;;;;;4.55;3.10;;;;;;;6.95;100.00;100161.48;4874545;57;1138884;-72
2023/04/11 21:01:31;;;;;;;6.93;3.80;;;;;;;6.96;100.00;100164.48;4912487;56;1139044;-73
2023/04/11 21:06:37;;;;;;;4.33;3.07;;;;;;;6.95;100.00;100169.37;4958212;56;1138993;-72
2023/04/11 21:11:42;;;;;;;4.87;3.40;;;;;;;6.94;100.00;100169.00;5007407;56;1138918;-70
2023/04/11 21:16:48;;;;;;;5.10;3.37;;;;;;;6.95;100.00;100178.57;4942832;57;1138935;-69
2023/04/11 21:21:56;;;;;;;7.03;3.00;;;;;;;6.97;100.00;100179.31;4912007;57;1138945;-70
2023/04/11 21:27:02;;;;;;;3.63;3.23;;;;;;;7.00;100.00;100181.27;4960858;57;1139175;-71
2023/04/11 21:32:08;;;;;;;5.53;2.90;;;;;;;7.03;100.00;100178.88;4948178;58;1138863;-71
2023/04/11 21:37:14;;;;;;;3.70;2.90;;;;;;;7.03;100.00;100185.45;4772968;59;1138899;-69
2023/04/11 21:42:19;;;;;;;4.45;3.25;;;;;;;7.08;100.00;100185.14;4837897;59;1139122;-69
2023/04/11 21:47:25;;;;;;;6.50;3.63;;;;;;;7.10;100.00;100188.52;4777075;59;1138896;-71
2023/04/11 21:52:31;;;;;;;4.20;3.47;;;;;;;7.09;100.00;100187.67;4860967;59;1138959;-71
2023/04/11 21:57:36;;;;;;;4.80;3.50;;;;;;;7.07;100.00;100184.30;4881002;59;1139005;-73
2023/04/11 22:02:42;;;;;;;3.70;3.40;;;;;;;7.07;100.00;100181.67;4893689;58;1138961;-69
2023/04/11 22:07:50;;;;;;;5.63;4.03;;;;;;;7.05;100.00;100179.62;4925980;58;1139072;-68
2023/04/11 22:12:56;;;;;;;8.78;4.45;;;;;;;7.03;100.00;100187.61;4926555;58;1139029;-69
2023/04/11 22:18:02;;;;;;;4.10;3.70;;;;;;;7.02;100.00;100189.90;5003461;57;1138807;-70
2023/04/11 22:23:08;;;;;;;4.37;3.50;;;;;;;7.01;100.00;100190.00;5019770;57;1138917;-69
2023/04/11 22:28:19;;;;;;;5.85;2.65;;;;;;;7.01;100.00;100190.00;5035376;57;1139092;-69
2023/04/11 22:33:25;;;;;;;4.25;2.85;;;;;;;7.00;100.00;100196.20;5020609;57;1138968;-69
2023/04/11 22:38:31;;;;;;;4.50;3.27;;;;;;;7.03;100.00;100190.70;5005376;57;1138806;-71
2023/04/11 22:43:36;;;;;;;4.33;3.60;;;;;;;7.03;100.00;100199.44;5016875;57;1138876;-70
2023/04/11 22:48:42;;;;;;;5.63;3.27;;;;;;;7.04;100.00;100200.28;4962112;58;1138867;-70
2023/04/11 22:53:48;;;;;;;6.00;2.90;;;;;;;7.07;100.00;100202.71;4942240;58;1138975;-71